Aviation Digital Data Service (ADDS)

Output produced by TAFs form (0829 UTC 24 October 2014)
found at http://aviationweather.gov/adds/tafs/
 
KASE 240520Z 2406/2506 21008KT P6SM SCT250 
     FM241400 VRB03KT P6SM SCT250 
     FM241900 34005KT P6SM FEW140 SCT250 
     FM250100 20006KT P6SM SCT250